createdAt,value
2019-02-20T00:00:02.002Z,3.25
2019-02-20T00:01:07.376Z,3.25
2019-02-20T00:02:11.101Z,3.11
2019-02-20T00:03:14.747Z,3.09
2019-02-20T00:04:18.385Z,3.07
2019-02-20T00:05:22.127Z,3.08
2019-02-20T00:06:25.773Z,3.05
2019-02-20T00:07:29.487Z,3.07
2019-02-20T00:08:33.237Z,3.10
2019-02-20T00:09:37.485Z,3.13
2019-02-20T00:10:41.234Z,3.11
2019-02-20T00:11:45.225Z,3.13
2019-02-20T00:12:48.921Z,3.09
2019-02-20T00:13:52.673Z,3.07
2019-02-20T00:14:56.387Z,3.06
2019-02-20T00:16:00.120Z,3.00
2019-02-20T00:17:03.831Z,2.93
2019-02-20T00:18:07.475Z,2.84
2019-02-20T00:19:11.113Z,2.78
2019-02-20T00:20:14.829Z,2.79
2019-02-20T00:21:18.572Z,2.81
2019-02-20T00:22:22.214Z,2.86
2019-02-20T00:23:25.870Z,2.88
2019-02-20T00:24:29.514Z,2.83
2019-02-20T00:25:33.315Z,2.76
2019-02-20T00:26:37.018Z,2.69
2019-02-20T00:27:40.659Z,2.63
2019-02-20T00:28:44.369Z,2.62
2019-02-20T00:29:48.149Z,2.66
2019-02-20T00:30:51.792Z,2.68
2019-02-20T00:31:55.464Z,2.67
2019-02-20T00:32:59.116Z,2.66
2019-02-20T00:34:02.817Z,2.64
2019-02-20T00:35:07.932Z,2.65
2019-02-20T00:36:13.240Z,2.56
2019-02-20T00:37:16.917Z,2.49
2019-02-20T00:38:20.493Z,2.46
2019-02-20T00:39:24.499Z,2.43
2019-02-20T00:40:28.224Z,2.48
2019-02-20T00:41:31.851Z,2.48
2019-02-20T00:42:35.529Z,2.49
2019-02-20T00:43:40.873Z,2.48
2019-02-20T00:44:48.998Z,2.48
2019-02-20T00:46:03.079Z,2.49
2019-02-20T00:47:24.999Z,2.46
2019-02-20T00:48:32.974Z,2.46
2019-02-20T00:49:38.293Z,2.47
2019-02-20T00:50:43.604Z,2.52
2019-02-20T00:51:48.876Z,2.49
2019-02-20T00:53:00.128Z,2.47
2019-02-20T00:54:05.423Z,2.42
2019-02-20T00:55:09.826Z,2.45
2019-02-20T00:56:13.504Z,2.46
2019-02-20T00:57:17.138Z,2.49
2019-02-20T00:58:20.789Z,2.40
2019-02-20T00:59:24.497Z,2.38
2019-02-20T01:00:28.146Z,2.43
2019-02-20T01:01:31.820Z,2.44
2019-02-20T01:02:35.528Z,2.36
2019-02-20T01:03:39.340Z,2.34
2019-02-20T01:04:42.969Z,2.26
2019-02-20T01:05:46.612Z,2.19
2019-02-20T01:06:50.292Z,2.15
2019-02-20T01:07:53.927Z,2.15
2019-02-20T01:08:57.648Z,2.15
2019-02-20T01:10:01.358Z,2.18
2019-02-20T01:11:05.369Z,2.18
2019-02-20T01:12:09.322Z,2.20
2019-02-20T01:13:13.005Z,2.24
2019-02-20T01:14:16.657Z,2.19
2019-02-20T01:15:20.369Z,2.20
2019-02-20T01:16:24.072Z,2.18
2019-02-20T01:17:27.730Z,2.15
2019-02-20T01:18:31.410Z,2.17
2019-02-20T01:19:35.009Z,2.19
2019-02-20T01:20:38.910Z,2.13
2019-02-20T01:21:42.551Z,2.15
2019-02-20T01:22:46.236Z,2.08
2019-02-20T01:23:51.513Z,2.05
2019-02-20T01:24:55.077Z,2.08
2019-02-20T01:25:58.725Z,2.04
2019-02-20T01:27:02.278Z,1.98
2019-02-20T01:28:05.878Z,1.92
2019-02-20T01:29:09.518Z,1.97
2019-02-20T01:30:13.765Z,1.95
2019-02-20T01:31:17.414Z,1.93
2019-02-20T01:32:21.046Z,1.93
2019-02-20T01:33:24.722Z,1.94
2019-02-20T01:34:28.358Z,1.94
2019-02-20T01:35:31.998Z,1.88
2019-02-20T01:36:35.950Z,1.83
2019-02-20T01:37:39.624Z,1.84
2019-02-20T01:38:44.786Z,1.84
2019-02-20T01:39:49.557Z,1.75
2019-02-20T01:40:53.461Z,1.63
2019-02-20T01:41:57.106Z,1.58
2019-02-20T01:43:00.737Z,1.52
2019-02-20T01:44:04.382Z,1.52
2019-02-20T01:45:08.841Z,1.47
2019-02-20T01:46:12.401Z,1.49
2019-02-20T01:47:16.033Z,1.55
2019-02-20T01:48:19.666Z,1.58
2019-02-20T01:49:23.303Z,1.62
2019-02-20T01:50:26.909Z,1.64
2019-02-20T01:51:30.538Z,1.68
2019-02-20T01:52:34.173Z,1.66
2019-02-20T01:53:37.823Z,1.70
2019-02-20T01:54:41.383Z,1.65
2019-02-20T01:55:45.072Z,1.62
2019-02-20T01:56:48.699Z,1.59
2019-02-20T01:57:52.355Z,1.54
2019-02-20T01:58:55.979Z,1.53
2019-02-20T01:59:59.626Z,1.55
2019-02-20T02:01:03.325Z,1.56
2019-02-20T02:02:06.979Z,1.60
2019-02-20T02:03:10.555Z,1.51
2019-02-20T02:04:14.197Z,1.42
2019-02-20T02:05:17.758Z,1.40
2019-02-20T02:06:21.418Z,1.38
2019-02-20T02:07:25.065Z,1.39
2019-02-20T02:08:28.699Z,1.47
2019-02-20T02:09:32.346Z,1.42
2019-02-20T02:10:35.984Z,1.42
2019-02-20T02:11:39.631Z,1.41
2019-02-20T02:12:43.208Z,1.48
2019-02-20T02:13:46.767Z,1.50
2019-02-20T02:14:50.324Z,1.41
2019-02-20T02:15:54.440Z,1.39
2019-02-20T02:16:58.114Z,1.36
2019-02-20T02:18:01.744Z,1.41
2019-02-20T02:19:05.485Z,1.46
2019-02-20T02:20:10.138Z,1.44
2019-02-20T02:21:13.768Z,1.44
2019-02-20T02:22:17.423Z,1.41
2019-02-20T02:23:21.057Z,1.39
2019-02-20T02:24:24.693Z,1.35
2019-02-20T02:25:28.494Z,1.41
2019-02-20T02:26:32.144Z,1.39
2019-02-20T02:27:35.788Z,1.31
2019-02-20T02:28:39.413Z,1.18
2019-02-20T02:29:43.058Z,1.13
2019-02-20T02:30:46.757Z,1.11
2019-02-20T02:31:50.399Z,1.16
2019-02-20T02:32:54.128Z,1.17
2019-02-20T02:33:57.764Z,1.14
2019-02-20T02:35:01.392Z,1.11
2019-02-20T02:36:05.336Z,1.17
2019-02-20T02:37:08.958Z,1.19
2019-02-20T02:38:12.599Z,1.23
2019-02-20T02:39:16.242Z,1.26
2019-02-20T02:40:19.888Z,1.25
2019-02-20T02:41:23.555Z,1.23
2019-02-20T02:42:27.181Z,1.25
2019-02-20T02:43:30.854Z,1.25
2019-02-20T02:44:34.425Z,1.18
2019-02-20T02:45:38.066Z,1.19
2019-02-20T02:46:41.616Z,1.21
2019-02-20T02:47:45.224Z,1.21
2019-02-20T02:48:48.900Z,1.21
2019-02-20T02:49:52.526Z,1.12
2019-02-20T02:50:56.156Z,1.06
2019-02-20T02:51:59.800Z,1.04
2019-02-20T02:53:03.437Z,0.95
2019-02-20T02:54:07.105Z,0.98
2019-02-20T02:55:10.831Z,0.99
2019-02-20T02:56:14.469Z,0.99
2019-02-20T02:57:18.112Z,0.92
2019-02-20T02:58:21.737Z,0.96
2019-02-20T02:59:25.422Z,0.97
2019-02-20T03:00:29.045Z,1.03
2019-02-20T03:01:32.607Z,1.05
2019-02-20T03:02:36.632Z,1.05
2019-02-20T03:03:40.267Z,1.06
2019-02-20T03:04:44.221Z,1.05
2019-02-20T03:05:48.225Z,1.02
2019-02-20T03:06:51.806Z,1.00
2019-02-20T03:07:55.440Z,1.05
2019-02-20T03:08:59.072Z,1.02
2019-02-20T03:10:02.749Z,0.95
2019-02-20T03:11:06.792Z,0.92
2019-02-20T03:12:10.435Z,0.86
2019-02-20T03:13:14.157Z,0.78
2019-02-20T03:14:17.792Z,0.70
2019-02-20T03:15:21.460Z,0.62
2019-02-20T03:16:25.092Z,0.53
2019-02-20T03:17:28.788Z,0.47
2019-02-20T03:18:32.434Z,0.48
2019-02-20T03:19:36.654Z,0.48
2019-02-20T03:20:40.291Z,0.52
2019-02-20T03:21:43.937Z,0.55
2019-02-20T03:22:47.562Z,0.55
2019-02-20T03:23:51.206Z,0.50
2019-02-20T03:24:54.849Z,0.45
2019-02-20T03:25:58.456Z,0.48
2019-02-20T03:27:02.028Z,0.45
2019-02-20T03:28:05.669Z,0.45
2019-02-20T03:29:09.344Z,0.43
2019-02-20T03:30:13.077Z,0.40
2019-02-20T03:31:16.735Z,0.40
2019-02-20T03:32:20.379Z,0.31
2019-02-20T03:33:24.018Z,0.28
2019-02-20T03:34:27.720Z,0.35
2019-02-20T03:35:31.277Z,0.41
2019-02-20T03:36:35.097Z,0.36
2019-02-20T03:37:38.660Z,0.36
2019-02-20T03:38:42.291Z,0.38
2019-02-20T03:39:45.855Z,0.42
2019-02-20T03:40:49.493Z,0.43
2019-02-20T03:41:53.179Z,0.49
2019-02-20T03:42:56.817Z,0.52
2019-02-20T03:44:00.450Z,0.47
2019-02-20T03:45:04.702Z,0.46
2019-02-20T03:46:08.332Z,0.37
2019-02-20T03:47:11.969Z,0.39
2019-02-20T03:48:15.617Z,0.45
2019-02-20T03:49:19.253Z,0.51
2019-02-20T03:50:22.944Z,0.50
2019-02-20T03:51:26.573Z,0.50
2019-02-20T03:52:30.195Z,0.47
2019-02-20T03:53:33.769Z,0.46
2019-02-20T03:54:37.436Z,0.41
2019-02-20T03:55:41.059Z,0.47
2019-02-20T03:56:44.827Z,0.43
2019-02-20T03:57:48.459Z,0.38
2019-02-20T03:58:52.015Z,0.39
2019-02-20T03:59:56.140Z,0.38
2019-02-20T04:00:59.775Z,0.38
2019-02-20T04:02:03.404Z,0.42
2019-02-20T04:03:07.387Z,0.43
2019-02-20T04:04:11.023Z,0.45
2019-02-20T04:05:14.702Z,0.42
2019-02-20T04:06:18.329Z,0.48
2019-02-20T04:07:21.969Z,0.48
2019-02-20T04:08:25.613Z,0.36
2019-02-20T04:09:29.255Z,0.33
2019-02-20T04:10:32.926Z,0.27
2019-02-20T04:11:36.567Z,0.29
2019-02-20T04:12:40.537Z,0.27
2019-02-20T04:13:44.194Z,0.21
2019-02-20T04:14:47.834Z,0.14
2019-02-20T04:15:51.517Z,0.10
2019-02-20T04:16:55.155Z,0.11
2019-02-20T04:17:58.785Z,0.13
2019-02-20T04:19:02.364Z,0.13
2019-02-20T04:20:07.592Z,0.09
2019-02-20T04:21:11.270Z,0.06
2019-02-20T04:22:14.828Z,0.08
2019-02-20T04:23:18.480Z,0.15
2019-02-20T04:24:22.115Z,0.17
2019-02-20T04:25:25.751Z,0.13
2019-02-20T04:26:29.418Z,0.13
2019-02-20T04:27:33.059Z,0.13
2019-02-20T04:28:36.781Z,0.15
2019-02-20T04:29:40.802Z,0.21
2019-02-20T04:30:44.459Z,0.24
2019-02-20T04:31:48.166Z,0.16
2019-02-20T04:32:51.808Z,0.01
2019-02-20T04:33:55.449Z,-0.09
2019-02-20T04:34:59.020Z,-0.09
2019-02-20T04:36:02.731Z,-0.02
2019-02-20T04:37:06.760Z,-0.07
2019-02-20T04:38:10.401Z,-0.12
2019-02-20T04:39:14.007Z,-0.12
2019-02-20T04:40:17.650Z,-0.14
2019-02-20T04:41:21.299Z,-0.08
2019-02-20T04:42:24.971Z,-0.07
2019-02-20T04:43:28.614Z,-0.06
2019-02-20T04:44:32.610Z,-0.03
2019-02-20T04:45:36.241Z,0.05
2019-02-20T04:46:39.874Z,0.00
2019-02-20T04:47:43.546Z,-0.03
2019-02-20T04:48:47.180Z,0.04
2019-02-20T04:49:50.811Z,0.12
2019-02-20T04:50:54.544Z,0.10
2019-02-20T04:51:58.571Z,0.12
2019-02-20T04:53:02.159Z,0.15
2019-02-20T04:54:12.931Z,0.09
2019-02-20T04:55:11.094Z,0.01
2019-02-20T04:56:14.745Z,0.00
2019-02-20T04:57:18.388Z,0.04
2019-02-20T04:58:23.161Z,0.06
2019-02-20T04:59:26.797Z,0.05
2019-02-20T05:00:30.851Z,-0.01
2019-02-20T05:01:34.608Z,-0.06
2019-02-20T05:02:38.318Z,-0.08
2019-02-20T05:03:41.957Z,-0.11
2019-02-20T05:04:45.595Z,-0.08
2019-02-20T05:05:49.241Z,-0.05
2019-02-20T05:06:52.902Z,-0.04
2019-02-20T05:07:56.484Z,-0.13
2019-02-20T05:09:00.192Z,-0.22
2019-02-20T05:10:03.930Z,-0.24
2019-02-20T05:11:07.587Z,-0.18
2019-02-20T05:12:11.219Z,-0.22
2019-02-20T05:13:14.806Z,-0.26
2019-02-20T05:14:18.790Z,-0.21
2019-02-20T05:15:22.433Z,-0.16
2019-02-20T05:16:25.954Z,-0.15
2019-02-20T05:17:29.578Z,-0.17
2019-02-20T05:18:33.233Z,-0.21
2019-02-20T05:19:36.901Z,-0.23
2019-02-20T05:20:40.559Z,-0.20
2019-02-20T05:21:44.182Z,-0.26
2019-02-20T05:22:47.750Z,-0.27
2019-02-20T05:23:51.387Z,-0.30
2019-02-20T05:24:55.067Z,-0.29
2019-02-20T05:25:58.696Z,-0.25
2019-02-20T05:27:02.336Z,-0.21
2019-02-20T05:28:05.981Z,-0.17
2019-02-20T05:29:09.626Z,-0.19
2019-02-20T05:30:13.611Z,-0.18
2019-02-20T05:31:17.262Z,-0.14
2019-02-20T05:32:20.899Z,-0.06
2019-02-20T05:33:24.535Z,-0.07
2019-02-20T05:34:28.252Z,-0.16
2019-02-20T05:35:31.964Z,-0.17
2019-02-20T05:36:35.621Z,-0.11
2019-02-20T05:37:39.739Z,-0.07
2019-02-20T05:38:43.478Z,-0.05
2019-02-20T05:39:47.057Z,-0.01
2019-02-20T05:40:50.662Z,-0.03
2019-02-20T05:41:54.225Z,-0.02
2019-02-20T05:42:58.231Z,-0.01
2019-02-20T05:44:01.878Z,-0.01
2019-02-20T05:45:06.512Z,-0.02
2019-02-20T05:46:10.183Z,-0.05
2019-02-20T05:47:13.831Z,-0.15
2019-02-20T05:48:17.406Z,-0.20
2019-02-20T05:49:21.047Z,-0.11
2019-02-20T05:50:24.611Z,-0.02
2019-02-20T05:51:28.849Z,0.05
2019-02-20T05:52:32.943Z,0.11
2019-02-20T05:53:36.511Z,0.13
2019-02-20T05:54:40.073Z,0.12
2019-02-20T05:55:43.740Z,0.12
2019-02-20T05:56:47.407Z,0.12
2019-02-20T05:57:51.032Z,0.10
2019-02-20T05:58:54.598Z,0.13
2019-02-20T05:59:58.162Z,0.12
2019-02-20T06:01:01.863Z,0.02
2019-02-20T06:02:05.573Z,-0.02
2019-02-20T06:03:09.155Z,-0.07
2019-02-20T06:04:12.858Z,-0.05
2019-02-20T06:05:16.510Z,-0.01
2019-02-20T06:06:20.188Z,-0.01
2019-02-20T06:07:23.837Z,-0.01
2019-02-20T06:08:27.468Z,-0.06
2019-02-20T06:09:31.117Z,-0.01
2019-02-20T06:10:34.759Z,-0.04
2019-02-20T06:11:38.436Z,-0.07
2019-02-20T06:12:42.060Z,0.00
2019-02-20T06:13:45.678Z,0.00
2019-02-20T06:14:49.315Z,0.08
2019-02-20T06:15:52.946Z,0.15
2019-02-20T06:16:56.542Z,0.21
2019-02-20T06:18:00.354Z,0.21
2019-02-20T06:19:04.406Z,0.19
2019-02-20T06:20:09.751Z,0.15
2019-02-20T06:21:13.383Z,0.19
2019-02-20T06:22:17.054Z,0.20
2019-02-20T06:23:20.703Z,0.18
2019-02-20T06:24:24.339Z,0.29
2019-02-20T06:25:28.088Z,0.31
2019-02-20T06:26:31.770Z,0.22
2019-02-20T06:27:35.428Z,0.17
2019-02-20T06:28:39.131Z,0.12
2019-02-20T06:29:42.774Z,0.11
2019-02-20T06:30:46.440Z,0.19
2019-02-20T06:31:50.081Z,0.37
2019-02-20T06:32:53.849Z,0.47
2019-02-20T06:33:57.500Z,0.58
2019-02-20T06:35:01.069Z,0.49
2019-02-20T06:36:04.718Z,0.41
2019-02-20T06:37:08.361Z,0.50
2019-02-20T06:38:12.042Z,0.57
2019-02-20T06:39:15.676Z,0.71
2019-02-20T06:40:19.318Z,0.82
2019-02-20T06:41:23.033Z,0.87
2019-02-20T06:42:26.987Z,0.95
2019-02-20T06:43:30.561Z,0.97
2019-02-20T06:44:34.193Z,1.03
2019-02-20T06:45:37.842Z,1.08
2019-02-20T06:46:41.473Z,1.15
2019-02-20T06:47:45.115Z,1.20
2019-02-20T06:48:48.706Z,1.28
2019-02-20T06:49:52.342Z,1.33
2019-02-20T06:50:55.982Z,1.47
2019-02-20T06:51:59.626Z,1.54
2019-02-20T06:53:03.202Z,1.66
2019-02-20T06:54:07.210Z,1.64
2019-02-20T06:55:12.532Z,1.60
2019-02-20T06:56:16.275Z,1.62
2019-02-20T06:57:19.929Z,1.65
2019-02-20T06:58:23.501Z,1.63
2019-02-20T06:59:27.169Z,1.66
2019-02-20T07:00:30.882Z,1.77
2019-02-20T07:01:34.521Z,1.97
2019-02-20T07:02:38.165Z,2.09
2019-02-20T07:03:42.184Z,2.20
2019-02-20T07:05:22.315Z,2.29
2019-02-20T07:06:34.865Z,2.22
2019-02-20T07:07:50.505Z,2.10
2019-02-20T07:09:04.569Z,2.12
2019-02-20T07:10:29.430Z,2.09
2019-02-20T07:11:41.453Z,2.10
2019-02-20T07:12:50.768Z,2.15
2019-02-20T07:13:57.319Z,2.31
2019-02-20T07:15:16.155Z,2.51
2019-02-20T07:16:34.777Z,2.71
2019-02-20T07:17:44.053Z,2.76
2019-02-20T07:18:53.742Z,2.64
2019-02-20T07:20:15.266Z,2.60
2019-02-20T07:21:21.816Z,2.58
2019-02-20T07:22:51.157Z,2.64
2019-02-20T07:23:57.698Z,2.73
2019-02-20T07:25:04.248Z,2.75
2019-02-20T07:26:41.382Z,2.70
2019-02-20T07:28:03.237Z,2.82
2019-02-20T07:29:15.345Z,3.24
2019-02-20T07:30:18.983Z,3.58
2019-02-20T07:31:22.634Z,3.74
2019-02-20T07:32:26.378Z,3.80
2019-02-20T07:33:30.050Z,3.80
2019-02-20T07:34:34.097Z,3.97
2019-02-20T07:35:37.738Z,4.01
2019-02-20T07:36:41.380Z,4.04
2019-02-20T07:37:45.020Z,4.09
2019-02-20T07:38:48.699Z,4.12
2019-02-20T07:39:52.444Z,4.21
2019-02-20T07:40:56.029Z,4.28
2019-02-20T07:41:59.657Z,4.48
2019-02-20T07:43:03.309Z,4.76
2019-02-20T07:44:07.012Z,4.84
2019-02-20T07:45:11.159Z,4.80
2019-02-20T07:46:14.809Z,4.96
2019-02-20T07:47:18.399Z,4.99
2019-02-20T07:48:22.276Z,4.96
2019-02-20T07:49:25.967Z,5.17
2019-02-20T07:50:29.603Z,5.41
2019-02-20T07:51:33.259Z,5.61
2019-02-20T07:52:36.828Z,5.75
2019-02-20T07:53:40.485Z,5.84
2019-02-20T07:54:44.324Z,6.05
2019-02-20T07:55:47.967Z,6.19
2019-02-20T07:56:51.602Z,6.38
2019-02-20T07:57:55.234Z,6.50
2019-02-20T07:58:58.871Z,6.60
2019-02-20T08:00:02.546Z,6.58
2019-02-20T08:01:06.188Z,6.68
2019-02-20T08:02:09.843Z,6.91
2019-02-20T08:03:13.577Z,7.06
2019-02-20T08:04:17.274Z,7.30
2019-02-20T08:05:20.953Z,7.49
2019-02-20T08:06:24.959Z,7.70
2019-02-20T08:07:28.596Z,7.84
2019-02-20T08:08:32.247Z,8.06
2019-02-20T08:09:35.879Z,8.10
2019-02-20T08:10:39.625Z,8.17
2019-02-20T08:11:43.265Z,8.12
2019-02-20T08:12:46.899Z,8.37
2019-02-20T08:13:50.566Z,8.58
2019-02-20T08:14:54.105Z,8.66
2019-02-20T08:15:57.786Z,8.86
2019-02-20T08:17:01.413Z,8.63
2019-02-20T08:18:05.049Z,8.70
2019-02-20T08:19:08.681Z,8.71
2019-02-20T08:20:12.390Z,8.66
2019-02-20T08:21:15.993Z,8.53
2019-02-20T08:22:19.641Z,8.50
2019-02-20T08:23:23.298Z,8.78
2019-02-20T08:24:26.928Z,9.13
2019-02-20T08:25:30.584Z,9.45
2019-02-20T08:26:34.315Z,9.88
2019-02-20T08:27:37.963Z,10.09
2019-02-20T08:28:41.530Z,10.20
2019-02-20T08:29:45.488Z,10.53
2019-02-20T08:30:49.131Z,10.76
2019-02-20T08:31:53.914Z,11.03
2019-02-20T08:32:57.680Z,10.97
2019-02-20T08:34:01.331Z,10.80
2019-02-20T08:35:06.270Z,10.78
2019-02-20T08:36:09.914Z,10.94
2019-02-20T08:37:13.588Z,11.22
2019-02-20T08:38:17.235Z,11.54
2019-02-20T08:39:20.879Z,12.02
2019-02-20T08:40:24.522Z,12.25
2019-02-20T08:41:28.161Z,12.25
2019-02-20T08:42:31.905Z,12.52
2019-02-20T08:43:35.505Z,12.17
2019-02-20T08:44:39.240Z,12.17
2019-02-20T08:45:42.877Z,12.54
2019-02-20T08:46:46.522Z,12.54
2019-02-20T08:47:50.199Z,12.84
2019-02-20T08:48:54.232Z,12.70
2019-02-20T08:49:57.874Z,12.59
2019-02-20T08:51:01.517Z,12.62
2019-02-20T08:52:05.162Z,12.71
2019-02-20T08:53:09.314Z,12.71
2019-02-20T08:54:12.944Z,12.63
2019-02-20T08:55:18.742Z,12.63
2019-02-20T08:56:21.990Z,12.69
2019-02-20T08:57:25.670Z,12.93
2019-02-20T08:58:29.302Z,12.93
2019-02-20T08:59:33.022Z,13.24
2019-02-20T09:00:36.665Z,12.90
2019-02-20T09:01:40.365Z,12.99
2019-02-20T09:02:44.032Z,13.17
2019-02-20T09:03:47.609Z,13.42
2019-02-20T09:04:51.252Z,13.42
2019-02-20T09:05:54.902Z,13.87
2019-02-20T09:06:58.513Z,13.87
2019-02-20T09:08:02.084Z,14.15
2019-02-20T09:09:06.713Z,14.28
2019-02-20T09:10:12.462Z,14.31
2019-02-20T09:11:16.125Z,14.55
2019-02-20T09:12:19.776Z,14.66
2019-02-20T09:13:23.481Z,14.90
2019-02-20T09:14:27.202Z,14.69
2019-02-20T09:15:30.782Z,14.68
2019-02-20T09:16:34.513Z,15.03
2019-02-20T09:17:38.113Z,15.23
2019-02-20T09:18:41.788Z,15.53
2019-02-20T09:19:45.430Z,15.91
2019-02-20T09:20:49.079Z,16.07
2019-02-20T09:21:52.717Z,16.24
2019-02-20T09:22:56.386Z,16.34
2019-02-20T09:24:00.024Z,16.72
2019-02-20T09:25:03.671Z,16.79
2019-02-20T09:26:07.324Z,16.94
2019-02-20T09:27:10.910Z,17.36
2019-02-20T09:28:14.596Z,17.49
2019-02-20T09:29:18.224Z,17.72
2019-02-20T09:30:28.237Z,17.93
2019-02-20T09:31:27.239Z,17.95
2019-02-20T09:32:30.875Z,17.95
2019-02-20T09:33:34.545Z,18.15
2019-02-20T09:34:38.192Z,18.36
2019-02-20T09:35:41.835Z,18.46
2019-02-20T09:36:45.401Z,18.70
2019-02-20T09:37:49.043Z,19.18
2019-02-20T09:38:52.719Z,19.44
2019-02-20T09:39:56.361Z,19.66
2019-02-20T09:41:00.012Z,20.09
2019-02-20T09:42:04.445Z,20.05
2019-02-20T09:43:08.098Z,19.85
2019-02-20T09:44:11.759Z,19.86
2019-02-20T09:45:15.399Z,19.89
2019-02-20T09:46:19.060Z,19.70
2019-02-20T09:47:22.678Z,19.41
2019-02-20T09:48:26.340Z,19.54
2019-02-20T09:49:29.942Z,19.81
2019-02-20T09:50:33.582Z,20.16
2019-02-20T09:51:37.226Z,20.23
2019-02-20T09:52:40.867Z,19.99
2019-02-20T09:53:44.441Z,19.87
2019-02-20T09:54:48.107Z,20.39
2019-02-20T09:55:52.095Z,20.75
2019-02-20T09:56:55.769Z,21.17
2019-02-20T09:57:59.413Z,21.40
2019-02-20T09:59:03.054Z,21.47
2019-02-20T10:00:15.056Z,21.62
2019-02-20T10:01:18.682Z,22.09
2019-02-20T10:02:22.329Z,22.13
2019-02-20T10:03:25.904Z,21.89
2019-02-20T10:04:29.538Z,22.08
2019-02-20T10:05:33.283Z,22.29
2019-02-20T10:06:37.237Z,21.95
2019-02-20T10:07:40.876Z,21.66
2019-02-20T10:08:44.595Z,21.97
2019-02-20T10:09:48.158Z,22.39
2019-02-20T10:10:51.831Z,22.13
2019-02-20T10:11:55.529Z,22.32
2019-02-20T10:12:59.111Z,22.56
2019-02-20T10:14:02.761Z,22.65
2019-02-20T10:15:12.441Z,22.68
2019-02-20T10:16:16.124Z,22.93
2019-02-20T10:17:19.768Z,23.03
2019-02-20T10:18:23.742Z,23.52
2019-02-20T10:19:27.397Z,23.80
2019-02-20T10:20:31.029Z,23.94
2019-02-20T10:21:34.769Z,23.73
2019-02-20T10:22:38.420Z,23.88
2019-02-20T10:23:42.058Z,23.90
2019-02-20T10:24:45.702Z,23.99
2019-02-20T10:25:49.293Z,24.04
2019-02-20T10:27:00.390Z,23.66
2019-02-20T10:27:58.364Z,23.79
2019-02-20T10:29:01.996Z,23.62
2019-02-20T10:30:08.565Z,23.70
2019-02-20T10:31:12.133Z,24.07
2019-02-20T10:32:15.891Z,24.16
2019-02-20T10:33:19.525Z,24.62
2019-02-20T10:34:23.165Z,25.10
2019-02-20T10:35:26.942Z,24.95
2019-02-20T10:36:30.572Z,24.83
2019-02-20T10:37:34.173Z,24.71
2019-02-20T10:38:37.811Z,24.55
2019-02-20T10:39:41.458Z,24.79
2019-02-20T10:40:45.096Z,25.09
2019-02-20T10:41:48.659Z,25.15
2019-02-20T10:42:52.636Z,25.10
2019-02-20T10:43:56.207Z,24.91
2019-02-20T10:45:01.243Z,24.69
2019-02-20T10:46:04.901Z,24.59
2019-02-20T10:47:08.542Z,24.58
2019-02-20T10:48:12.586Z,24.16
2019-02-20T10:49:16.275Z,24.42
2019-02-20T10:50:19.911Z,25.04
2019-02-20T10:51:23.551Z,25.36
2019-02-20T10:52:27.193Z,25.45
2019-02-20T10:53:30.868Z,25.67
2019-02-20T10:54:34.508Z,25.95
2019-02-20T10:55:38.147Z,26.22
2019-02-20T10:56:41.786Z,26.31
2019-02-20T10:57:45.427Z,26.36
2019-02-20T10:58:49.104Z,25.95
2019-02-20T10:59:52.677Z,26.15
2019-02-20T11:00:56.304Z,26.72
2019-02-20T11:02:00.287Z,27.23
2019-02-20T11:03:03.931Z,27.58
2019-02-20T11:04:07.594Z,27.56
2019-02-20T11:05:11.237Z,27.84
2019-02-20T11:06:14.884Z,28.02
2019-02-20T11:07:18.447Z,28.51
2019-02-20T11:08:22.092Z,28.99
2019-02-20T11:09:25.773Z,29.08
2019-02-20T11:10:29.409Z,29.35
2019-02-20T11:11:32.989Z,29.34
2019-02-20T11:12:36.625Z,29.42
2019-02-20T11:13:40.270Z,29.09
2019-02-20T11:14:43.940Z,28.82
2019-02-20T11:15:47.584Z,29.18
2019-02-20T11:16:51.452Z,28.87
2019-02-20T11:17:55.087Z,28.49
2019-02-20T11:18:58.740Z,28.24
2019-02-20T11:20:02.605Z,28.00
2019-02-20T11:21:06.250Z,28.25
2019-02-20T11:22:09.891Z,28.61
2019-02-20T11:23:13.905Z,29.09
2019-02-20T11:24:17.957Z,29.40
2019-02-20T11:25:21.706Z,29.19
2019-02-20T11:26:25.350Z,29.39
2019-02-20T11:27:28.994Z,29.64
2019-02-20T11:28:32.574Z,29.91
2019-02-20T11:29:36.226Z,30.03
2019-02-20T11:30:40.005Z,29.76
2019-02-20T11:31:43.653Z,29.97
2019-02-20T11:32:47.656Z,30.28
2019-02-20T11:33:51.293Z,30.37
2019-02-20T11:34:55.289Z,29.96
2019-02-20T11:35:58.883Z,29.86
2019-02-20T11:37:02.532Z,29.99
2019-02-20T11:38:06.178Z,30.70
2019-02-20T11:39:11.609Z,31.27
2019-02-20T11:40:15.557Z,31.82
2019-02-20T11:41:19.221Z,32.07
2019-02-20T11:42:22.913Z,32.38
2019-02-20T11:43:26.549Z,32.15
2019-02-20T11:44:30.184Z,31.73
2019-02-20T11:45:33.756Z,31.39
2019-02-20T11:46:37.431Z,30.91
2019-02-20T11:47:41.074Z,30.51
2019-02-20T11:48:44.726Z,30.37
2019-02-20T11:49:48.365Z,30.35
2019-02-20T11:50:51.934Z,30.48
2019-02-20T11:51:55.611Z,30.78
2019-02-20T11:52:59.257Z,31.17
2019-02-20T11:54:03.933Z,30.97
2019-02-20T11:55:09.530Z,31.47
2019-02-20T11:56:13.171Z,31.63
2019-02-20T11:57:16.845Z,31.64
2019-02-20T11:58:20.497Z,31.88
2019-02-20T11:59:24.138Z,31.94
2019-02-20T12:00:27.768Z,32.21
2019-02-20T12:01:31.346Z,31.60
2019-02-20T12:02:37.514Z,31.51
2019-02-20T12:03:40.299Z,31.27
2019-02-20T12:04:43.944Z,31.28
2019-02-20T12:05:47.586Z,31.05
2019-02-20T12:06:51.265Z,30.98
2019-02-20T12:07:55.255Z,31.43
2019-02-20T12:08:58.902Z,31.49
2019-02-20T12:10:02.470Z,31.32
2019-02-20T12:11:06.219Z,31.52
2019-02-20T12:12:10.813Z,30.97
2019-02-20T12:13:14.529Z,31.30
2019-02-20T12:14:18.114Z,31.52
2019-02-20T12:15:21.752Z,31.82
2019-02-20T12:16:27.232Z,31.89
2019-02-20T12:17:30.844Z,31.97
2019-02-20T12:18:34.516Z,31.81
2019-02-20T12:19:39.387Z,31.93
2019-02-20T12:20:43.178Z,32.01
2019-02-20T12:21:46.824Z,32.12
2019-02-20T12:22:50.400Z,32.30
2019-02-20T12:23:54.068Z,32.07
2019-02-20T12:24:59.323Z,32.21
2019-02-20T12:26:03.167Z,32.16
2019-02-20T12:27:06.808Z,31.92
2019-02-20T12:28:10.468Z,31.92
2019-02-20T12:29:14.135Z,32.11
2019-02-20T12:30:17.770Z,32.51
2019-02-20T12:31:21.470Z,32.33
2019-02-20T12:32:25.311Z,31.20
2019-02-20T12:33:28.949Z,31.02
2019-02-20T12:34:32.663Z,31.19
2019-02-20T12:35:36.308Z,30.47
2019-02-20T12:36:39.956Z,30.35
2019-02-20T12:37:43.593Z,30.23
2019-02-20T12:38:47.166Z,30.12
2019-02-20T12:39:50.850Z,29.82
2019-02-20T12:40:54.498Z,29.79
2019-02-20T12:41:58.138Z,29.87
2019-02-20T12:43:01.768Z,28.98
2019-02-20T12:44:05.415Z,29.15
2019-02-20T12:45:09.686Z,29.31
2019-02-20T12:46:13.322Z,29.42
2019-02-20T12:47:16.897Z,29.50
2019-02-20T12:48:20.539Z,29.85
2019-02-20T12:49:24.092Z,29.53
2019-02-20T12:50:27.734Z,29.32
2019-02-20T12:51:31.369Z,29.27
2019-02-20T12:52:35.399Z,29.34
2019-02-20T12:53:39.044Z,29.25
2019-02-20T12:54:42.601Z,28.60
2019-02-20T12:55:46.299Z,28.62
2019-02-20T12:56:49.942Z,28.48
2019-02-20T12:57:53.615Z,28.39
2019-02-20T12:58:57.272Z,28.43
2019-02-20T13:00:00.932Z,28.59
2019-02-20T13:01:05.050Z,28.55
2019-02-20T13:02:08.693Z,28.27
2019-02-20T13:03:12.369Z,28.01
2019-02-20T13:04:16.328Z,28.39
2019-02-20T13:05:20.029Z,28.38
2019-02-20T13:06:23.685Z,28.11
2019-02-20T13:07:27.326Z,27.70
2019-02-20T13:08:30.904Z,27.87
2019-02-20T13:09:34.611Z,28.18
2019-02-20T13:10:38.617Z,28.10
2019-02-20T13:11:42.263Z,27.88
2019-02-20T13:12:46.808Z,28.07
2019-02-20T13:13:50.658Z,28.29
2019-02-20T13:14:54.236Z,28.59
2019-02-20T13:15:57.872Z,28.38
2019-02-20T13:17:01.520Z,27.98
2019-02-20T13:18:05.153Z,27.60
2019-02-20T13:19:08.824Z,27.55
2019-02-20T13:20:12.722Z,26.77
2019-02-20T13:21:16.362Z,27.07
2019-02-20T13:22:20.005Z,27.43
2019-02-20T13:23:23.655Z,27.53
2019-02-20T13:24:27.331Z,27.60
2019-02-20T13:25:30.967Z,27.62
2019-02-20T13:26:43.611Z,27.46
2019-02-20T13:27:47.192Z,27.22
2019-02-20T13:28:50.825Z,27.16
2019-02-20T13:29:54.562Z,27.48
2019-02-20T13:30:58.223Z,27.87
2019-02-20T13:32:01.858Z,28.12
2019-02-20T13:33:05.503Z,28.04
2019-02-20T13:34:09.132Z,28.14
2019-02-20T13:35:12.857Z,28.06
2019-02-20T13:36:16.927Z,28.03
2019-02-20T13:37:20.517Z,27.81
2019-02-20T13:38:24.315Z,27.79
2019-02-20T13:39:29.598Z,27.70
2019-02-20T13:40:34.481Z,27.88
2019-02-20T13:41:39.860Z,27.82
2019-02-20T13:42:43.604Z,27.83
2019-02-20T13:43:47.179Z,28.10
2019-02-20T13:44:50.860Z,28.42
2019-02-20T13:45:54.574Z,28.24
2019-02-20T13:46:58.288Z,28.21
2019-02-20T13:48:02.017Z,27.97
2019-02-20T13:49:05.738Z,27.86
2019-02-20T13:50:12.540Z,27.67
2019-02-20T13:51:17.815Z,27.34
2019-02-20T13:52:21.536Z,27.05
2019-02-20T13:53:25.198Z,27.03
2019-02-20T13:54:28.829Z,27.02
2019-02-20T13:55:34.742Z,27.10
2019-02-20T13:56:37.926Z,27.16
2019-02-20T13:57:41.578Z,27.00
2019-02-20T13:58:46.805Z,26.65
2019-02-20T13:59:50.613Z,26.33